createdAt,value
2023-03-02T00:02:18.581Z,12.70
2023-03-02T00:04:52.477Z,12.30
2023-03-02T00:07:32.077Z,12.70
2023-03-02T00:10:00.988Z,12.30
2023-03-02T00:12:32.444Z,14.50
2023-03-02T00:15:00.423Z,14.60
2023-03-02T00:17:28.494Z,14.30
2023-03-02T00:20:07.775Z,14.40
2023-03-02T00:22:36.556Z,12.70
2023-03-02T00:25:06.406Z,16.00
2023-03-02T00:27:35.016Z,13.40
2023-03-02T00:30:04.037Z,13.60
2023-03-02T00:32:32.378Z,12.40
2023-03-02T00:35:01.552Z,11.80
2023-03-02T00:37:30.281Z,14.10
2023-03-02T00:39:58.549Z,12.40
2023-03-02T00:42:26.458Z,12.80
2023-03-02T00:44:54.795Z,12.40
2023-03-02T00:47:23.294Z,13.00
2023-03-02T00:49:51.557Z,12.90
2023-03-02T00:52:19.649Z,13.20
2023-03-02T00:54:47.702Z,12.60
2023-03-02T00:57:16.590Z,13.40
2023-03-02T00:59:44.659Z,12.10
2023-03-02T01:02:26.291Z,11.90
2023-03-02T01:04:55.144Z,14.50
2023-03-02T01:07:25.161Z,15.00
2023-03-02T01:09:53.315Z,14.00
2023-03-02T01:12:21.307Z,14.20
2023-03-02T01:14:50.960Z,14.30
2023-03-02T01:17:22.234Z,15.20
2023-03-02T01:19:50.232Z,13.40
2023-03-02T01:22:19.452Z,14.10
2023-03-02T01:24:47.572Z,13.40
2023-03-02T01:27:16.356Z,13.60
2023-03-02T01:29:44.356Z,13.10
2023-03-02T01:32:12.469Z,14.60
2023-03-02T01:34:40.814Z,13.60
2023-03-02T01:37:08.911Z,15.30
2023-03-02T01:39:37.359Z,14.10
2023-03-02T01:42:05.440Z,15.30
2023-03-02T01:44:51.946Z,14.30
2023-03-02T01:47:38.038Z,15.30
2023-03-02T01:50:24.469Z,15.10
2023-03-02T01:52:56.113Z,15.50
2023-03-02T01:55:31.648Z,16.30
2023-03-02T01:58:03.179Z,15.00
2023-03-02T02:00:38.124Z,16.30
2023-03-02T02:06:13.444Z,16.40
2023-03-02T02:08:41.776Z,15.60
2023-03-02T02:11:10.644Z,15.40
2023-03-02T02:13:39.043Z,17.00
2023-03-02T02:16:08.095Z,17.00
2023-03-02T02:18:40.968Z,17.30
2023-03-02T02:21:09.820Z,15.10
2023-03-02T02:24:10.076Z,17.40
2023-03-02T02:26:57.667Z,15.20
2023-03-02T02:29:35.912Z,15.90
2023-03-02T02:32:19.642Z,14.10
2023-03-02T02:34:52.339Z,17.50
2023-03-02T02:37:29.218Z,16.20
2023-03-02T02:39:59.043Z,15.40
2023-03-02T02:42:36.448Z,17.50
2023-03-02T02:45:19.731Z,15.30
2023-03-02T02:47:50.019Z,15.30
2023-03-02T02:50:27.826Z,17.60
2023-03-02T02:53:17.309Z,16.00
2023-03-02T02:55:49.785Z,16.40
2023-03-02T02:58:32.072Z,16.40
2023-03-02T03:01:01.608Z,15.20
2023-03-02T03:03:36.303Z,14.10
2023-03-02T03:06:17.082Z,15.90
2023-03-02T03:08:45.838Z,16.40
2023-03-02T03:11:26.620Z,15.40
2023-03-02T03:14:24.240Z,16.80
2023-03-02T03:16:53.436Z,17.30
2023-03-02T03:19:26.796Z,15.50
2023-03-02T03:21:59.405Z,16.60
2023-03-02T03:24:32.497Z,16.20
2023-03-02T03:27:05.665Z,17.00
2023-03-02T03:29:38.322Z,17.20
2023-03-02T03:32:08.708Z,16.10
2023-03-02T03:34:41.726Z,14.60
2023-03-02T03:37:19.389Z,16.50
2023-03-02T03:39:48.112Z,15.50
2023-03-02T03:42:17.220Z,16.40
2023-03-02T03:44:45.602Z,15.40
2023-03-02T03:47:14.470Z,16.80
2023-03-02T03:49:43.082Z,16.30
2023-03-02T03:52:11.159Z,17.70
2023-03-02T03:54:39.224Z,16.20
2023-03-02T03:57:07.894Z,15.40
2023-03-02T03:59:35.911Z,16.20
2023-03-02T04:02:04.665Z,15.70
2023-03-02T04:04:36.827Z,16.50
2023-03-02T04:07:09.613Z,17.90
2023-03-02T04:09:39.361Z,18.10
2023-03-02T04:12:09.958Z,17.20
2023-03-02T04:14:39.846Z,18.20
2023-03-02T04:17:08.298Z,15.90
2023-03-02T04:19:41.038Z,17.20
2023-03-02T04:22:10.230Z,19.20
2023-03-02T04:24:38.300Z,16.90
2023-03-02T04:27:06.491Z,17.30
2023-03-02T04:29:37.151Z,16.20
2023-03-02T04:32:08.040Z,18.20
2023-03-02T04:34:38.208Z,18.30
2023-03-02T04:37:07.486Z,16.70
2023-03-02T04:39:35.657Z,16.70
2023-03-02T04:42:03.689Z,16.60
2023-03-02T04:44:31.655Z,15.40
2023-03-02T04:46:59.896Z,15.00
2023-03-02T04:49:28.465Z,15.90
2023-03-02T04:51:56.450Z,15.30
2023-03-02T04:54:27.149Z,14.00
2023-03-02T04:56:56.570Z,14.10
2023-03-02T04:59:29.248Z,14.80
2023-03-02T05:02:00.467Z,14.90
2023-03-02T05:04:29.661Z,14.20
2023-03-02T05:06:58.506Z,14.30
2023-03-02T05:09:31.011Z,13.40
2023-03-02T05:12:01.597Z,13.20
2023-03-02T05:14:30.967Z,12.60
2023-03-02T05:16:59.430Z,12.90
2023-03-02T05:19:28.196Z,14.50
2023-03-02T05:21:57.261Z,13.30
2023-03-02T05:24:25.524Z,13.20
2023-03-02T05:26:53.807Z,13.10
2023-03-02T05:29:21.772Z,13.50
2023-03-02T05:31:51.344Z,12.80
2023-03-02T05:34:19.578Z,12.60
2023-03-02T05:36:47.635Z,11.40
2023-03-02T05:39:15.898Z,12.60
2023-03-02T05:41:43.844Z,14.30
2023-03-02T05:44:12.709Z,12.50
2023-03-02T05:46:41.794Z,12.40
2023-03-02T05:49:10.756Z,11.50
2023-03-02T05:51:38.948Z,13.80
2023-03-02T05:54:07.104Z,12.30
2023-03-02T05:56:35.755Z,12.80
2023-03-02T05:59:04.264Z,12.40
2023-03-02T06:01:32.609Z,14.30
2023-03-02T06:04:01.150Z,12.20
2023-03-02T06:06:31.696Z,12.30
2023-03-02T06:09:01.077Z,11.80
2023-03-02T06:11:30.371Z,11.70
2023-03-02T06:13:58.293Z,12.10
2023-03-02T06:16:26.303Z,11.00
2023-03-02T06:18:54.411Z,11.80
2023-03-02T06:21:22.438Z,11.70
2023-03-02T06:23:50.470Z,10.60
2023-03-02T06:26:18.424Z,12.30
2023-03-02T06:28:52.916Z,11.70
2023-03-02T06:31:22.375Z,12.40
2023-03-02T06:33:51.010Z,11.10
2023-03-02T06:36:19.488Z,11.00
2023-03-02T06:38:47.735Z,10.80
2023-03-02T06:41:16.643Z,12.10
2023-03-02T06:43:45.218Z,10.60
2023-03-02T06:46:13.579Z,11.00
2023-03-02T06:48:41.859Z,13.50
2023-03-02T06:51:09.827Z,15.40
2023-03-02T06:53:37.822Z,14.80
2023-03-02T06:56:07.193Z,15.50
2023-03-02T06:58:36.942Z,15.70
2023-03-02T07:01:07.935Z,19.70
2023-03-02T07:03:36.697Z,18.10
2023-03-02T07:06:05.969Z,17.30
2023-03-02T07:08:34.613Z,18.40
2023-03-02T07:11:12.390Z,15.90
2023-03-02T07:13:40.932Z,16.00
2023-03-02T07:16:14.975Z,17.00
2023-03-02T07:18:43.519Z,14.50
2023-03-02T07:21:11.807Z,16.70
2023-03-02T07:23:40.817Z,16.20
2023-03-02T07:26:09.962Z,16.90
2023-03-02T07:28:41.845Z,16.10
2023-03-02T07:31:12.090Z,14.30
2023-03-02T07:33:41.376Z,16.20
2023-03-02T07:36:09.698Z,17.20
2023-03-02T07:38:38.755Z,15.00
2023-03-02T07:41:09.430Z,15.60
2023-03-02T07:43:38.228Z,16.20
2023-03-02T07:46:06.891Z,14.90
2023-03-02T07:48:39.434Z,16.80
2023-03-02T07:51:08.426Z,15.10
2023-03-02T07:53:36.477Z,14.30
2023-03-02T07:56:11.041Z,12.90
2023-03-02T07:58:39.122Z,14.30
2023-03-02T08:01:07.647Z,15.30
2023-03-02T08:03:37.284Z,14.60
2023-03-02T08:06:10.576Z,12.50
2023-03-02T08:08:39.138Z,15.00
2023-03-02T08:11:10.822Z,14.20
2023-03-02T08:13:39.312Z,12.80
2023-03-02T08:16:10.602Z,13.70
2023-03-02T08:18:40.533Z,13.20
2023-03-02T08:21:15.611Z,13.20
2023-03-02T08:23:45.284Z,15.30
2023-03-02T08:26:17.459Z,12.00
2023-03-02T08:28:47.787Z,11.20
2023-03-02T08:31:16.472Z,12.10
2023-03-02T08:33:46.240Z,12.60
2023-03-02T08:36:19.486Z,11.20
2023-03-02T08:38:49.249Z,13.40
2023-03-02T08:41:23.616Z,12.00
2023-03-02T08:43:54.398Z,11.80
2023-03-02T08:46:23.132Z,12.20
2023-03-02T08:48:51.532Z,11.00
2023-03-02T08:51:23.985Z,11.80
2023-03-02T08:53:57.566Z,10.60
2023-03-02T08:56:35.630Z,11.80
2023-03-02T08:59:11.249Z,10.40
2023-03-02T09:01:40.816Z,12.10
2023-03-02T09:04:11.318Z,10.50
2023-03-02T09:06:43.095Z,10.60
2023-03-02T09:09:14.303Z,12.30
2023-03-02T09:11:45.006Z,10.70
2023-03-02T09:14:13.512Z,12.30
2023-03-02T09:16:41.913Z,9.20
2023-03-02T09:19:13.506Z,11.50
2023-03-02T09:21:41.628Z,12.50
2023-03-02T09:24:10.246Z,10.30
2023-03-02T09:26:39.336Z,10.50
2023-03-02T09:29:08.483Z,9.30
2023-03-02T09:31:37.766Z,10.90
2023-03-02T09:34:06.366Z,9.90
2023-03-02T09:36:35.088Z,10.50
2023-03-02T09:39:08.675Z,11.10
2023-03-02T09:42:02.675Z,11.00
2023-03-02T09:44:48.807Z,11.80
2023-03-02T09:48:04.855Z,11.50
2023-03-02T09:50:40.317Z,10.10
2023-03-02T09:53:45.835Z,10.00
2023-03-02T09:56:19.844Z,10.30
2023-03-02T09:58:58.254Z,10.30
2023-03-02T10:01:38.385Z,9.40
2023-03-02T10:04:16.636Z,9.50
2023-03-02T10:06:46.855Z,9.50
2023-03-02T10:09:15.419Z,9.90
2023-03-02T10:12:14.738Z,8.90
2023-03-02T10:14:53.421Z,9.30
2023-03-02T10:17:42.012Z,9.70
2023-03-02T10:20:55.609Z,9.00
2023-03-02T10:23:34.111Z,8.70
2023-03-02T10:26:40.983Z,8.70
2023-03-02T10:29:32.968Z,9.50
2023-03-02T10:32:10.117Z,8.50
2023-03-02T10:34:38.678Z,9.40
2023-03-02T10:37:23.204Z,9.30
2023-03-02T10:39:55.302Z,7.90
2023-03-02T10:42:35.942Z,8.30
2023-03-02T10:45:31.244Z,8.30
2023-03-02T10:48:06.259Z,8.90
2023-03-02T10:50:34.222Z,9.00
2023-03-02T10:53:05.164Z,6.60
2023-03-02T10:55:34.936Z,6.70
2023-03-02T10:58:20.379Z,7.10
2023-03-02T11:01:18.513Z,7.70
2023-03-02T11:04:01.798Z,6.80
2023-03-02T11:06:30.768Z,8.50
2023-03-02T11:09:07.473Z,10.90
2023-03-02T11:11:37.203Z,6.60
2023-03-02T11:14:17.764Z,6.20
2023-03-02T11:16:47.950Z,7.30
2023-03-02T11:19:35.226Z,8.80
2023-03-02T11:22:22.750Z,10.60
2023-03-02T11:24:58.109Z,6.90
2023-03-02T11:27:31.609Z,6.50
2023-03-02T11:30:34.630Z,9.30
2023-03-02T11:33:14.413Z,8.30
2023-03-02T11:35:59.232Z,7.10
2023-03-02T11:38:44.443Z,9.90
2023-03-02T11:43:44.827Z,6.30
2023-03-02T11:46:26.498Z,7.80
2023-03-02T11:49:13.975Z,6.70
2023-03-02T11:51:58.474Z,6.70
2023-03-02T11:54:46.194Z,7.70
2023-03-02T11:57:29.739Z,9.50
2023-03-02T11:59:59.725Z,8.70
2023-03-02T12:02:28.522Z,9.40
2023-03-02T12:05:08.654Z,6.70
2023-03-02T12:07:36.856Z,10.00
2023-03-02T12:10:09.465Z,8.20
2023-03-02T12:12:44.166Z,6.80
2023-03-02T12:15:37.156Z,6.70
2023-03-02T12:18:23.465Z,6.30
2023-03-02T12:21:15.851Z,8.70
2023-03-02T12:23:50.406Z,7.30
2023-03-02T12:26:22.778Z,6.00
2023-03-02T12:29:09.458Z,7.30
2023-03-02T12:31:49.045Z,6.10
2023-03-02T12:34:37.255Z,5.30
2023-03-02T12:37:24.382Z,5.10
2023-03-02T12:40:15.718Z,5.80
2023-03-02T12:43:14.604Z,5.30
2023-03-02T12:46:20.412Z,8.10
2023-03-02T12:49:22.598Z,5.80
2023-03-02T12:51:50.770Z,5.80
2023-03-02T12:54:22.994Z,5.20
2023-03-02T12:57:22.081Z,5.80
2023-03-02T13:00:03.142Z,5.00
2023-03-02T13:02:36.439Z,4.80
2023-03-02T13:05:07.476Z,5.00
2023-03-02T13:07:43.716Z,5.70
2023-03-02T13:10:43.993Z,5.90
2023-03-02T13:13:48.839Z,5.20
2023-03-02T13:16:33.561Z,6.20
2023-03-02T13:19:11.102Z,4.50
2023-03-02T13:21:40.052Z,5.70
2023-03-02T13:25:03.601Z,5.80
2023-03-02T13:27:34.206Z,5.20
2023-03-02T13:30:13.350Z,4.90
2023-03-02T13:32:43.499Z,5.60
2023-03-02T13:35:26.083Z,4.70
2023-03-02T13:38:13.912Z,5.30
2023-03-02T13:40:49.392Z,5.60
2023-03-02T13:43:35.781Z,6.20
2023-03-02T13:46:27.089Z,5.60
2023-03-02T13:49:11.499Z,6.60
2023-03-02T13:51:47.464Z,5.30
2023-03-02T13:54:25.809Z,4.80
2023-03-02T13:56:54.572Z,5.80
2023-03-02T13:59:23.144Z,6.40
2023-03-02T14:01:51.979Z,5.00
2023-03-02T14:04:25.936Z,6.80
2023-03-02T14:06:55.820Z,6.80
2023-03-02T14:09:24.070Z,6.00
2023-03-02T14:11:55.971Z,4.90
2023-03-02T14:14:27.086Z,5.00
2023-03-02T14:16:55.108Z,5.80
2023-03-02T14:19:22.990Z,8.60
2023-03-02T14:21:51.206Z,5.80
2023-03-02T14:24:19.277Z,7.40
2023-03-02T14:26:49.329Z,5.20
2023-03-02T14:29:29.259Z,7.40
2023-03-02T14:32:03.717Z,5.60
2023-03-02T14:34:32.154Z,6.70
2023-03-02T14:37:06.164Z,5.80
2023-03-02T14:39:44.136Z,6.20
2023-03-02T14:42:19.356Z,7.00
2023-03-02T14:44:50.587Z,6.90
2023-03-02T14:47:19.819Z,6.10
2023-03-02T14:49:49.808Z,6.70
2023-03-02T14:52:34.013Z,7.60
2023-03-02T14:55:15.911Z,6.10
2023-03-02T14:57:44.719Z,7.00
2023-03-02T15:00:15.816Z,6.30
2023-03-02T15:02:45.323Z,6.90
2023-03-02T15:05:14.811Z,6.70
2023-03-02T15:07:44.118Z,6.90
2023-03-02T15:10:22.516Z,6.80
2023-03-02T15:12:51.885Z,5.60
2023-03-02T15:15:23.562Z,6.20
2023-03-02T15:17:53.031Z,6.40
2023-03-02T15:20:24.036Z,7.00
2023-03-02T15:22:54.327Z,7.50
2023-03-02T15:25:26.562Z,6.60
2023-03-02T15:27:58.944Z,6.90
2023-03-02T15:30:30.784Z,6.40
2023-03-02T15:33:00.154Z,8.10
2023-03-02T15:35:29.723Z,7.70
2023-03-02T15:38:03.221Z,9.10
2023-03-02T15:40:33.922Z,9.00
2023-03-02T15:43:06.543Z,8.10
2023-03-02T15:45:35.000Z,8.10
2023-03-02T15:48:05.560Z,6.90
2023-03-02T15:50:34.695Z,8.00
2023-03-02T15:53:03.823Z,9.30
2023-03-02T15:55:32.610Z,7.90
2023-03-02T15:58:01.203Z,7.80
2023-03-02T16:00:31.341Z,7.40
2023-03-02T16:03:01.991Z,8.40
2023-03-02T16:05:31.164Z,8.70
2023-03-02T16:08:00.158Z,9.50
2023-03-02T16:10:32.794Z,11.90
2023-03-02T16:13:03.999Z,9.60
2023-03-02T16:15:41.754Z,9.40
2023-03-02T16:18:11.652Z,8.10
2023-03-02T16:20:40.019Z,12.60
2023-03-02T16:23:09.781Z,12.70
2023-03-02T16:25:43.577Z,13.70
2023-03-02T16:28:12.811Z,16.20
2023-03-02T16:30:44.238Z,14.10
2023-03-02T16:33:17.143Z,15.90
2023-03-02T16:35:45.639Z,16.00
2023-03-02T16:38:13.561Z,13.90
2023-03-02T16:40:41.626Z,14.50
2023-03-02T16:43:10.848Z,17.30
2023-03-02T16:45:39.129Z,14.90
2023-03-02T16:48:07.938Z,14.80
2023-03-02T16:50:35.964Z,16.30
2023-03-02T16:53:13.056Z,16.50
2023-03-02T16:55:54.515Z,16.50
2023-03-02T16:58:24.988Z,16.10
2023-03-02T17:00:55.120Z,18.00
2023-03-02T17:03:26.595Z,14.90
2023-03-02T17:05:57.374Z,15.50
2023-03-02T17:08:25.856Z,15.00
2023-03-02T17:10:54.132Z,14.60
2023-03-02T17:13:22.428Z,12.50
2023-03-02T17:15:51.070Z,13.00
2023-03-02T17:18:19.744Z,10.70
2023-03-02T17:20:53.152Z,11.60
2023-03-02T17:23:22.401Z,12.30
2023-03-02T17:25:51.159Z,10.80
2023-03-02T17:28:19.803Z,11.00
2023-03-02T17:30:48.747Z,11.70
2023-03-02T17:33:18.343Z,12.80
2023-03-02T17:35:47.583Z,11.70
2023-03-02T17:38:16.651Z,12.40
2023-03-02T17:40:44.776Z,11.90
2023-03-02T17:43:13.296Z,12.40
2023-03-02T17:45:42.500Z,14.80
2023-03-02T17:48:10.879Z,13.20
2023-03-02T17:50:39.145Z,12.80
2023-03-02T17:53:07.850Z,12.50
2023-03-02T17:55:36.395Z,15.10
2023-03-02T17:58:05.074Z,13.60
2023-03-02T18:00:33.990Z,12.80
2023-03-02T18:03:02.319Z,13.10
2023-03-02T18:05:31.227Z,14.00
2023-03-02T18:07:59.739Z,13.30
2023-03-02T18:10:28.041Z,14.50
2023-03-02T18:12:56.950Z,12.60
2023-03-02T18:15:28.733Z,14.20
2023-03-02T18:17:58.882Z,12.80
2023-03-02T18:20:27.494Z,16.50
2023-03-02T18:22:58.685Z,13.80
2023-03-02T18:25:28.419Z,15.20
2023-03-02T18:27:57.097Z,14.20
2023-03-02T18:30:25.695Z,15.90
2023-03-02T18:32:54.618Z,16.20
2023-03-02T18:35:24.010Z,16.30
2023-03-02T18:37:53.986Z,16.80
2023-03-02T18:40:23.004Z,16.10
2023-03-02T18:42:52.100Z,17.30
2023-03-02T18:45:31.291Z,20.00
2023-03-02T18:48:01.803Z,17.40
2023-03-02T18:50:30.963Z,18.00
2023-03-02T18:53:02.331Z,21.30
2023-03-02T18:55:32.380Z,19.30
2023-03-02T18:58:00.524Z,19.70
2023-03-02T19:00:29.062Z,22.00
2023-03-02T19:02:57.503Z,20.20
2023-03-02T19:05:27.159Z,20.20
2023-03-02T19:07:57.764Z,18.90
2023-03-02T19:10:27.152Z,20.90
2023-03-02T19:12:55.127Z,18.80
2023-03-02T19:15:25.053Z,20.50
2023-03-02T19:17:53.301Z,18.10
2023-03-02T19:20:21.448Z,16.00
2023-03-02T19:22:53.411Z,14.60
2023-03-02T19:25:21.994Z,13.50
2023-03-02T19:27:50.398Z,12.60
2023-03-02T19:30:25.770Z,13.00
2023-03-02T19:32:54.718Z,11.30
2023-03-02T19:35:27.881Z,12.50
2023-03-02T19:37:59.193Z,13.80
2023-03-02T19:40:30.358Z,11.40
2023-03-02T19:42:58.563Z,14.70
2023-03-02T19:45:32.492Z,12.60
2023-03-02T19:48:05.888Z,14.40
2023-03-02T19:50:34.140Z,12.70
2023-03-02T19:53:02.622Z,12.50
2023-03-02T19:55:32.027Z,12.90
2023-03-02T19:58:02.034Z,12.80
2023-03-02T20:00:32.820Z,12.30
2023-03-02T20:03:01.104Z,11.80
2023-03-02T20:05:29.159Z,12.10
2023-03-02T20:07:57.302Z,12.50
2023-03-02T20:10:43.215Z,12.00
2023-03-02T20:13:12.897Z,10.20
2023-03-02T20:15:44.875Z,11.80
2023-03-02T20:18:20.021Z,12.90
2023-03-02T20:20:48.646Z,12.20
2023-03-02T20:23:18.056Z,10.80
2023-03-02T20:25:48.407Z,14.80
2023-03-02T20:28:22.794Z,11.70
2023-03-02T20:30:59.975Z,11.70
2023-03-02T20:33:35.384Z,12.60
2023-03-02T20:36:06.214Z,12.30
2023-03-02T20:38:49.533Z,11.20
2023-03-02T20:41:18.441Z,12.80
2023-03-02T20:43:48.996Z,12.10
2023-03-02T20:46:31.786Z,11.50
2023-03-02T20:49:00.249Z,12.10
2023-03-02T20:51:30.251Z,11.20
2023-03-02T20:53:59.109Z,11.60
2023-03-02T20:56:32.829Z,13.60
2023-03-02T20:59:01.695Z,10.90
2023-03-02T21:01:30.319Z,12.00
2023-03-02T21:03:58.615Z,12.90
2023-03-02T21:06:27.402Z,12.30
2023-03-02T21:09:00.293Z,12.00
2023-03-02T21:11:29.792Z,12.10
2023-03-02T21:13:59.552Z,11.90
2023-03-02T21:16:36.639Z,11.10
2023-03-02T21:19:10.274Z,12.50
2023-03-02T21:21:42.185Z,9.90
2023-03-02T21:24:13.997Z,10.90
2023-03-02T21:26:44.380Z,11.50
2023-03-02T21:29:14.125Z,11.80
2023-03-02T21:31:43.952Z,11.00
2023-03-02T21:34:14.310Z,12.20
2023-03-02T21:36:43.522Z,12.60
2023-03-02T21:39:15.867Z,11.90
2023-03-02T21:41:43.830Z,11.30
2023-03-02T21:44:12.555Z,11.10
2023-03-02T21:46:41.092Z,12.00
2023-03-02T21:49:09.452Z,11.70
2023-03-02T21:51:40.252Z,11.70
2023-03-02T21:54:09.656Z,13.10
2023-03-02T21:56:43.140Z,12.00
2023-03-02T21:59:12.447Z,14.60
2023-03-02T22:01:41.336Z,12.30
2023-03-02T22:04:12.759Z,14.50
2023-03-02T22:06:41.191Z,12.00
2023-03-02T22:09:11.529Z,13.20
2023-03-02T22:11:39.766Z,13.40
2023-03-02T22:14:17.967Z,13.30
2023-03-02T22:16:48.282Z,14.50
2023-03-02T22:19:32.336Z,13.80
2023-03-02T22:22:03.325Z,13.70
2023-03-02T22:24:33.796Z,13.40
2023-03-02T22:27:04.628Z,14.60
2023-03-02T22:29:41.965Z,13.70
2023-03-02T22:32:38.520Z,13.20
2023-03-02T22:35:22.351Z,13.20
2023-03-02T22:37:59.974Z,13.90
2023-03-02T22:40:35.419Z,15.10
2023-03-02T22:43:12.422Z,13.70
2023-03-02T22:45:42.050Z,14.10
2023-03-02T22:48:20.745Z,14.30
2023-03-02T22:50:50.688Z,13.20
2023-03-02T22:53:24.491Z,13.00
2023-03-02T22:56:08.488Z,12.90
2023-03-02T22:58:51.665Z,12.50
2023-03-02T23:01:42.333Z,13.30
2023-03-02T23:04:19.879Z,13.70
2023-03-02T23:07:05.216Z,11.50
2023-03-02T23:09:35.817Z,11.90
2023-03-02T23:12:20.317Z,11.90
2023-03-02T23:14:53.575Z,11.80
2023-03-02T23:17:39.624Z,12.40
2023-03-02T23:20:14.059Z,12.10
2023-03-02T23:22:43.350Z,12.20
2023-03-02T23:25:11.348Z,12.00
2023-03-02T23:27:39.395Z,12.90
2023-03-02T23:30:08.630Z,12.30
2023-03-02T23:32:36.841Z,12.20
2023-03-02T23:35:05.692Z,12.60
2023-03-02T23:37:33.696Z,11.30
2023-03-02T23:40:01.708Z,11.70
2023-03-02T23:42:30.239Z,13.30
2023-03-02T23:45:00.990Z,12.10
2023-03-02T23:47:29.226Z,12.90
2023-03-02T23:49:57.218Z,13.00
2023-03-02T23:52:25.397Z,12.40
2023-03-02T23:54:53.981Z,10.70
2023-03-02T23:57:22.149Z,12.20
2023-03-02T23:59:50.127Z,13.20
